Time;durP1;ratioP1;P1;durP2;ratioP2;P2;SDS_P1;SDS_P2;PMS_P1;PMS_P2;Temp;Humidity;BMP_temperature;BMP_pressure;BME280_temperature;BME280_humidity;BME280_pressure;Samples;Min_cycle;Max_cycle;Signal;HPM_P1;HPM_P2
2022/09/18 00:00:43;;;;;;;3.72;1.58;;;;;;;19.19;62.79;93396.94;4205135;28;20056;-57
2022/09/18 00:02:44;;;;;;;4.78;1.58;;;;;;;18.39;67.16;93404.94;4200773;28;20079;-59
2022/09/18 00:04:46;;;;;;;4.95;1.95;;;;;;;17.84;69.49;93404.72;4206387;28;20131;-59
2022/09/18 00:06:48;;;;;;;5.68;2.03;;;;;;;16.89;72.93;93423.31;4201038;28;20087;-58
2022/09/18 00:08:51;;;;;;;4.45;2.33;;;;;;;16.27;74.72;93431.56;4208201;28;20448;-56
2022/09/18 00:10:52;;;;;;;4.47;2.42;;;;;;;15.86;76.50;93448.16;4194170;28;20052;-58
2022/09/18 00:12:54;;;;;;;8.95;2.72;;;;;;;15.67;77.57;93465.81;4210989;28;20440;-60
2022/09/18 00:14:56;;;;;;;3.38;2.22;;;;;;;15.49;77.95;93448.16;4212134;28;20087;-57
2022/09/18 00:16:58;;;;;;;3.55;2.22;;;;;;;15.43;77.75;93462.22;4212125;28;20086;-60
2022/09/18 00:19:00;;;;;;;2.97;2.03;;;;;;;15.41;77.03;93475.63;4212258;28;20065;-57
2022/09/18 00:21:06;;;;;;;3.33;1.77;;;;;;;15.40;76.08;93484.56;4211758;28;20044;-60
2022/09/18 00:23:08;;;;;;;2.35;1.63;;;;;;;15.00;76.89;93482.28;4212252;28;20741;-65
2022/09/18 00:25:10;;;;;;;2.67;1.70;;;;;;;14.37;77.81;93498.94;4210200;28;20058;-61
2022/09/18 00:27:12;;;;;;;2.65;1.27;;;;;;;13.79;77.74;93476.09;4212336;28;20075;-64
2022/09/18 00:29:15;;;;;;;3.92;1.10;;;;;;;13.65;78.14;93490.31;4211500;28;20507;-65
2022/09/18 00:31:20;;;;;;;3.72;1.23;;;;;;;13.55;78.03;93496.03;4211869;28;20050;-64
2022/09/18 00:33:22;;;;;;;2.40;1.00;;;;;;;13.48;77.02;93503.91;4206016;28;20051;-65
2022/09/18 00:35:23;;;;;;;1.45;0.95;;;;;;;13.52;76.70;93507.75;4206175;28;20091;-64
2022/09/18 00:37:27;;;;;;;4.32;1.00;;;;;;;13.24;76.79;93515.06;4212087;28;20052;-65
2022/09/18 00:39:28;;;;;;;2.13;0.85;;;;;;;13.08;77.60;93527.63;4198174;28;20080;-64
2022/09/18 00:41:33;;;;;;;1.63;0.52;;;;;;;13.03;77.22;93535.28;4193631;28;20742;-59
2022/09/18 00:43:35;;;;;;;5.57;1.20;;;;;;;13.19;76.90;93536.72;4213062;28;20134;-59
2022/09/18 00:45:37;;;;;;;2.28;0.80;;;;;;;13.09;77.17;93542.38;4211840;28;20094;-58
2022/09/18 00:47:45;;;;;;;2.55;0.88;;;;;;;13.35;75.13;93558.38;4210223;28;20146;-58
2022/09/18 00:49:48;;;;;;;2.22;0.82;;;;;;;13.47;73.36;93547.03;4210532;28;20076;-59
2022/09/18 00:51:52;;;;;;;4.82;0.80;;;;;;;13.39;71.62;93572.75;4211785;28;20506;-58
2022/09/18 00:54:07;;;;;;;1.48;0.52;;;;;;;13.05;72.99;93577.16;4209394;28;20119;-58
2022/09/18 00:56:11;;;;;;;0.75;0.60;;;;;;;12.80;73.31;93588.25;4198325;28;20071;-58
2022/09/18 00:58:13;;;;;;;1.80;0.55;;;;;;;12.94;72.54;93604.84;4210932;28;20087;-56
2022/09/18 01:00:15;;;;;;;3.10;0.52;;;;;;;12.98;71.90;93592.13;4211508;28;20123;-56
2022/09/18 01:02:17;;;;;;;1.00;0.70;;;;;;;13.12;71.71;93612.19;4206004;28;20131;-57
2022/09/18 01:04:19;;;;;;;0.57;0.50;;;;;;;13.31;70.98;93605.31;4210114;28;20075;-57
2022/09/18 01:06:52;;;;;;;0.75;0.40;;;;;;;13.22;70.82;93625.72;4209402;28;20549;-59
2022/09/18 01:09:23;;;;;;;1.00;0.52;;;;;;;13.05;71.23;93651.56;4186491;28;20144;-58
2022/09/18 01:11:35;;;;;;;0.80;0.45;;;;;;;12.99;71.34;93662.09;4150497;28;20442;-60
2022/09/18 01:13:44;;;;;;;1.17;0.50;;;;;;;13.08;71.32;93679.31;4220526;28;20079;-58
2022/09/18 01:16:01;;;;;;;0.63;0.35;;;;;;;13.09;71.68;93684.34;4193734;28;20048;-59
2022/09/18 01:18:32;;;;;;;3.38;0.70;;;;;;;12.96;72.50;93680.91;4208449;28;20043;-60
2022/09/18 01:20:49;;;;;;;2.50;0.20;;;;;;;13.00;72.45;93698.69;4189694;28;20048;-59
2022/09/18 01:23:13;;;;;;;0.65;0.40;;;;;;;12.74;72.51;93717.03;4196422;28;20151;-58
2022/09/18 01:25:21;;;;;;;1.17;0.30;;;;;;;12.77;72.01;93721.88;4208591;28;20072;-58
2022/09/18 01:27:40;;;;;;;0.45;0.40;;;;;;;12.84;72.80;93722.69;4211002;28;20044;-64
2022/09/18 01:30:06;;;;;;;2.10;0.40;;;;;;;12.99;72.53;93730.44;4210886;28;20170;-65
2022/09/18 01:32:28;;;;;;;0.40;0.40;;;;;;;13.08;71.83;93740.59;4185248;28;21348;-65
2022/09/18 01:34:45;;;;;;;1.13;0.50;;;;;;;13.14;71.67;93746.06;4202847;28;20076;-64
2022/09/18 01:36:51;;;;;;;0.43;0.40;;;;;;;13.20;71.56;93755.78;4219598;28;20113;-65
2022/09/18 01:39:13;;;;;;;1.23;0.55;;;;;;;13.20;70.66;93768.94;4209939;28;20580;-63
2022/09/18 01:41:20;;;;;;;2.38;0.50;;;;;;;13.27;71.54;93765.34;4207923;28;20044;-64
2022/09/18 01:43:24;;;;;;;1.10;0.60;;;;;;;13.23;71.39;93792.22;4214464;28;20146;-65
2022/09/18 01:45:29;;;;;;;0.65;0.45;;;;;;;13.22;70.46;93774.81;4210217;28;20051;-65
2022/09/18 01:47:37;;;;;;;0.50;0.40;;;;;;;13.10;69.89;93795.63;4201714;28;20076;-65
2022/09/18 01:49:45;;;;;;;2.15;0.30;;;;;;;13.07;70.70;93801.25;4206046;28;20083;-66
2022/09/18 01:51:51;;;;;;;0.45;0.30;;;;;;;13.09;70.83;93800.03;4209505;28;20155;-65
2022/09/18 01:54:01;;;;;;;0.70;0.40;;;;;;;13.14;70.81;93806.53;4211224;28;20044;-63
2022/09/18 01:56:08;;;;;;;0.85;0.40;;;;;;;12.82;69.44;93814.06;4196375;28;20044;-63
2022/09/18 01:58:19;;;;;;;1.50;0.30;;;;;;;12.22;72.04;93825.03;4200899;28;20159;-63
2022/09/18 02:00:21;;;;;;;1.08;0.30;;;;;;;12.07;72.43;93816.44;4200128;28;20077;-62
2022/09/18 02:02:31;;;;;;;0.28;0.20;;;;;;;12.06;72.52;93827.91;4209117;28;20130;-65
2022/09/18 02:04:35;;;;;;;0.63;0.35;;;;;;;12.21;72.27;93827.84;4209803;28;20047;-63
2022/09/18 02:06:48;;;;;;;0.68;0.40;;;;;;;12.25;71.85;93842.22;4210519;28;20692;-64
2022/09/18 02:08:52;;;;;;;0.20;0.20;;;;;;;12.29;69.98;93848.72;4212904;28;20086;-64
2022/09/18 02:11:03;;;;;;;0.20;0.20;;;;;;;12.32;70.47;93852.75;4210975;28;20447;-65
2022/09/18 02:13:06;;;;;;;3.47;0.30;;;;;;;12.44;69.78;93864.38;4214253;28;20046;-65
2022/09/18 02:15:10;;;;;;;0.40;0.22;;;;;;;12.43;68.98;93866.19;4213788;28;20135;-65
2022/09/18 02:17:21;;;;;;;1.80;0.30;;;;;;;12.44;69.67;93867.00;4213734;28;20052;-65
2022/09/18 02:19:30;;;;;;;0.30;0.25;;;;;;;12.46;68.51;93865.00;4212937;28;20055;-64
2022/09/18 02:21:32;;;;;;;0.30;0.30;;;;;;;12.25;68.15;93861.41;4212702;28;20109;-64
2022/09/18 02:23:36;;;;;;;0.95;0.47;;;;;;;12.32;67.76;93865.88;4213388;28;20404;-64
2022/09/18 02:25:57;;;;;;;0.20;0.20;;;;;;;12.35;69.13;93870.78;4210035;28;20056;-64
2022/09/18 02:27:59;;;;;;;0.45;0.40;;;;;;;12.27;68.65;93877.78;4201321;28;20135;-63
2022/09/18 02:30:02;;;;;;;0.57;0.40;;;;;;;12.24;68.51;93896.53;4210586;28;20134;-63
2022/09/18 02:32:04;;;;;;;0.40;0.40;;;;;;;12.35;68.50;93899.66;4207557;28;20048;-63
2022/09/18 02:34:07;;;;;;;0.77;0.52;;;;;;;12.41;68.51;93912.03;4203641;28;20551;-65
2022/09/18 02:36:57;;;;;;;0.30;0.30;;;;;;;12.33;68.67;93935.81;4199786;28;20063;-62
2022/09/18 02:39:10;;;;;;;1.30;0.40;;;;;;;12.27;67.71;93946.06;4156632;28;20056;-62
2022/09/18 02:41:40;;;;;;;0.98;0.50;;;;;;;12.13;66.74;93948.72;4182294;28;20662;-64
2022/09/18 02:43:54;;;;;;;0.55;0.50;;;;;;;12.01;67.43;93943.19;4192058;28;20058;-64
2022/09/18 02:46:27;;;;;;;1.00;0.55;;;;;;;11.92;67.06;93947.72;4211536;28;20169;-64
2022/09/18 02:48:30;;;;;;;0.55;0.40;;;;;;;11.62;67.96;93945.13;4211785;28;20047;-65
2022/09/18 02:50:38;;;;;;;0.77;0.60;;;;;;;11.59;67.40;93955.97;4217510;28;20098;-65
2022/09/18 02:53:07;;;;;;;0.98;0.70;;;;;;;10.85;69.68;93982.22;4209718;28;20058;-65
2022/09/18 02:55:17;;;;;;;0.90;0.70;;;;;;;10.65;70.02;93961.75;4194024;28;20044;-64
2022/09/18 02:57:38;;;;;;;4.57;1.27;;;;;;;10.69;70.14;93958.75;4212251;28;20044;-63
2022/09/18 03:00:00;;;;;;;1.10;0.80;;;;;;;10.85;70.41;93964.66;4200150;28;20048;-62
2022/09/18 03:02:02;;;;;;;1.13;0.85;;;;;;;10.68;69.79;93954.53;4212102;28;20048;-64
2022/09/18 03:04:05;;;;;;;1.30;1.08;;;;;;;10.47;70.00;93976.16;4210676;28;20139;-64
2022/09/18 03:06:07;;;;;;;1.47;1.10;;;;;;;10.70;68.51;93971.69;4207674;28;20075;-64
2022/09/18 03:08:09;;;;;;;3.47;1.00;;;;;;;10.76;68.66;93991.13;4217425;28;20473;-63
2022/09/18 03:10:11;;;;;;;1.58;1.15;;;;;;;10.73;69.40;93981.00;4209726;28;20087;-64
2022/09/18 03:12:13;;;;;;;1.85;1.10;;;;;;;10.79;68.79;93991.56;4213158;28;20127;-64
2022/09/18 03:14:15;;;;;;;1.30;1.10;;;;;;;10.63;69.75;93984.69;4213024;28;20079;-65
2022/09/18 03:16:16;;;;;;;1.80;1.10;;;;;;;10.76;69.18;93991.13;4211714;28;20047;-64
2022/09/18 03:18:19;;;;;;;1.80;1.00;;;;;;;10.66;69.38;93986.94;4209564;28;20469;-59
2022/09/18 03:20:21;;;;;;;1.90;1.10;;;;;;;10.29;70.83;93994.75;4210419;28;20086;-58
2022/09/18 03:22:23;;;;;;;1.63;1.17;;;;;;;10.14;71.40;94005.16;4212948;28;20127;-59
2022/09/18 03:24:24;;;;;;;1.60;1.15;;;;;;;9.90;71.64;94003.50;4213062;28;20076;-59
2022/09/18 03:26:26;;;;;;;2.88;1.13;;;;;;;9.79;72.61;94002.88;4211303;28;20136;-59
2022/09/18 03:28:31;;;;;;;1.80;1.35;;;;;;;9.50;73.81;94011.34;4212361;28;20262;-59
2022/09/18 03:30:33;;;;;;;1.88;1.10;;;;;;;9.47;74.18;94011.69;4211663;28;20082;-58
2022/09/18 03:32:34;;;;;;;1.65;1.40;;;;;;;9.46;74.59;94012.66;4213075;28;20048;-58
2022/09/18 03:34:37;;;;;;;2.03;1.00;;;;;;;9.40;73.97;94006.31;4212850;28;20080;-58
2022/09/18 03:36:39;;;;;;;2.63;1.20;;;;;;;9.20;74.72;94012.91;4211347;28;20166;-58
2022/09/18 03:38:41;;;;;;;1.40;1.20;;;;;;;9.11;74.90;94024.38;4212803;28;20465;-59
2022/09/18 03:40:43;;;;;;;1.60;1.00;;;;;;;9.07;75.15;94023.88;4210645;28;20052;-57
2022/09/18 03:42:48;;;;;;;1.25;1.00;;;;;;;9.24;75.01;94008.97;4212258;28;20459;-59
2022/09/18 03:44:50;;;;;;;2.70;1.17;;;;;;;9.52;74.01;94005.94;4199116;28;20292;-59
2022/09/18 03:46:51;;;;;;;1.40;1.10;;;;;;;9.36;72.93;94025.13;4207451;28;20479;-58
2022/09/18 03:48:53;;;;;;;1.73;1.20;;;;;;;9.42;73.66;94027.88;4212451;28;20513;-57
2022/09/18 03:50:55;;;;;;;1.60;1.08;;;;;;;9.53;73.67;94025.88;4200780;28;20053;-57
2022/09/18 03:52:57;;;;;;;2.60;1.30;;;;;;;9.30;73.49;94036.25;4198420;28;20044;-55
2022/09/18 03:54:58;;;;;;;1.70;1.20;;;;;;;9.13;73.84;94033.66;4210636;28;20130;-62
2022/09/18 03:57:00;;;;;;;2.25;1.30;;;;;;;9.07;74.23;94057.03;4202495;28;20127;-63
2022/09/18 03:59:02;;;;;;;1.80;1.50;;;;;;;8.91;74.89;94043.00;4196329;28;20067;-64
2022/09/18 04:01:04;;;;;;;2.45;1.17;;;;;;;9.12;75.24;94059.94;4196933;28;20679;-63
2022/09/18 04:03:05;;;;;;;1.90;1.40;;;;;;;9.42;73.62;94066.25;4203034;28;20044;-65
2022/09/18 04:05:08;;;;;;;1.63;1.30;;;;;;;9.72;72.64;94054.25;4212031;28;20048;-58
2022/09/18 04:07:10;;;;;;;2.05;1.45;;;;;;;9.98;70.78;94066.22;4200621;28;20048;-59
2022/09/18 04:09:11;;;;;;;2.42;1.50;;;;;;;10.12;70.48;94057.66;4209663;28;20495;-60
2022/09/18 04:11:13;;;;;;;1.70;1.40;;;;;;;10.20;70.07;94052.38;4209152;28;20043;-58
2022/09/18 04:13:15;;;;;;;1.67;1.50;;;;;;;9.96;70.59;94068.19;4204085;28;20044;-59
2022/09/18 04:15:18;;;;;;;1.90;1.48;;;;;;;9.78;71.25;94073.69;4196341;28;20137;-57
2022/09/18 04:17:19;;;;;;;2.08;1.70;;;;;;;9.70;71.67;94073.69;4211673;28;20124;-58
2022/09/18 04:19:21;;;;;;;2.05;1.63;;;;;;;9.64;72.34;94083.06;4207040;28;20147;-59
2022/09/18 04:21:23;;;;;;;2.50;2.00;;;;;;;9.29;72.20;94097.34;4194915;28;20089;-60
2022/09/18 04:23:25;;;;;;;2.60;1.70;;;;;;;9.11;73.55;94094.91;4196251;28;20653;-58
2022/09/18 04:25:26;;;;;;;2.33;2.10;;;;;;;8.91;74.94;94100.47;4207312;28;20063;-57
2022/09/18 04:27:28;;;;;;;3.92;1.63;;;;;;;9.00;73.99;94090.84;4199071;28;20044;-60
2022/09/18 04:29:31;;;;;;;2.10;1.85;;;;;;;9.13;74.49;94087.72;4211214;28;20166;-57
2022/09/18 04:31:33;;;;;;;2.50;2.20;;;;;;;9.19;74.09;94100.13;4199222;28;20075;-57
2022/09/18 04:33:35;;;;;;;2.20;1.73;;;;;;;8.94;75.71;94104.56;4196719;28;20493;-64
2022/09/18 04:35:36;;;;;;;2.45;1.95;;;;;;;8.79;76.32;94102.56;4202028;28;20048;-64
2022/09/18 04:37:38;;;;;;;3.70;2.28;;;;;;;8.83;76.89;94113.53;4196155;28;20075;-62
2022/09/18 04:39:40;;;;;;;4.47;2.13;;;;;;;9.02;76.85;94112.41;4195801;28;20143;-63
2022/09/18 04:41:44;;;;;;;4.47;2.42;;;;;;;9.30;75.94;94115.47;4210978;28;20070;-65
2022/09/18 04:43:45;;;;;;;3.83;1.85;;;;;;;9.25;74.94;94124.78;4212150;28;20416;-65
2022/09/18 04:45:48;;;;;;;4.15;2.35;;;;;;;8.98;75.94;94126.75;4210648;28;20140;-63
2022/09/18 04:47:50;;;;;;;2.00;1.67;;;;;;;9.11;76.49;94128.88;4205398;28;20056;-65
2022/09/18 04:49:52;;;;;;;2.35;1.70;;;;;;;9.15;75.72;94133.63;4209809;28;20040;-65
2022/09/18 04:51:54;;;;;;;2.42;1.80;;;;;;;8.93;77.08;94137.69;4211190;28;20052;-64
2022/09/18 04:53:56;;;;;;;2.65;1.70;;;;;;;8.95;77.15;94140.97;4210639;28;20047;-65
2022/09/18 04:55:58;;;;;;;3.47;1.65;;;;;;;9.23;77.04;94135.41;4209442;28;20075;-65
2022/09/18 04:57:59;;;;;;;2.55;1.77;;;;;;;9.36;75.88;94153.22;4212100;28;20142;-63
2022/09/18 05:00:02;;;;;;;2.22;1.67;;;;;;;9.42;76.02;94163.00;4204201;28;20521;-64
2022/09/18 05:02:04;;;;;;;2.85;1.80;;;;;;;9.28;76.88;94158.44;4204856;28;20083;-64
2022/09/18 05:04:05;;;;;;;2.45;1.73;;;;;;;9.52;76.17;94171.47;4209714;28;20048;-63
2022/09/18 05:06:07;;;;;;;1.90;1.60;;;;;;;9.61;75.33;94154.81;4197751;28;20117;-64
2022/09/18 05:08:09;;;;;;;2.22;1.67;;;;;;;9.34;75.97;94176.91;4204587;28;20045;-64
2022/09/18 05:10:10;;;;;;;1.80;1.40;;;;;;;9.53;75.75;94183.59;4203324;28;20167;-57
2022/09/18 05:12:12;;;;;;;3.47;1.42;;;;;;;9.79;75.30;94183.38;4197613;28;20182;-59
2022/09/18 05:14:14;;;;;;;1.80;1.50;;;;;;;10.05;73.79;94198.84;4198521;28;20143;-58
2022/09/18 05:16:15;;;;;;;2.08;1.65;;;;;;;10.25;73.31;94209.75;4211364;28;20131;-59
2022/09/18 05:18:17;;;;;;;2.00;1.30;;;;;;;10.47;72.78;94201.34;4200715;28;20056;-58
2022/09/18 05:20:19;;;;;;;1.80;1.42;;;;;;;10.63;71.46;94212.56;4210234;28;20078;-58
2022/09/18 05:22:21;;;;;;;3.70;1.65;;;;;;;10.66;70.89;94211.41;4195441;28;20057;-58
2022/09/18 05:24:22;;;;;;;1.80;1.45;;;;;;;10.75;70.42;94204.31;4195257;28;20052;-59
2022/09/18 05:26:25;;;;;;;1.70;1.17;;;;;;;10.77;69.54;94212.81;4204140;28;20044;-61
2022/09/18 05:28:27;;;;;;;1.77;1.30;;;;;;;10.84;70.23;94221.63;4210625;28;20138;-65
2022/09/18 05:30:30;;;;;;;1.70;1.40;;;;;;;10.89;69.60;94214.06;4199475;28;20318;-66
2022/09/18 05:32:31;;;;;;;2.30;1.65;;;;;;;10.96;68.59;94201.91;4203728;28;20505;-65
2022/09/18 05:34:33;;;;;;;1.85;1.50;;;;;;;11.10;68.14;94202.13;4195706;28;20528;-67
2022/09/18 05:36:35;;;;;;;2.08;1.50;;;;;;;11.04;66.48;94216.78;4208830;28;20553;-64
2022/09/18 05:38:36;;;;;;;2.38;1.63;;;;;;;11.04;66.82;94225.44;4195759;28;20044;-65
2022/09/18 05:40:38;;;;;;;1.63;1.25;;;;;;;11.05;66.18;94224.44;4201797;28;20071;-64
2022/09/18 05:42:47;;;;;;;2.13;1.52;;;;;;;11.05;65.30;94231.50;4213365;28;20048;-69
2022/09/18 05:44:48;;;;;;;2.40;1.50;;;;;;;11.21;65.25;94233.22;4213428;28;20074;-66
2022/09/18 05:46:50;;;;;;;2.83;1.35;;;;;;;11.12;64.33;94231.63;4214469;28;20115;-65
2022/09/18 05:48:52;;;;;;;2.20;1.30;;;;;;;11.11;64.74;94240.50;4216049;28;20048;-66
2022/09/18 05:50:55;;;;;;;2.38;1.60;;;;;;;11.00;64.25;94245.13;4218911;28;20135;-65
2022/09/18 05:52:58;;;;;;;2.05;1.45;;;;;;;11.01;64.13;94241.53;4212732;28;20050;-65
2022/09/18 05:55:00;;;;;;;2.28;1.67;;;;;;;11.03;64.42;94234.31;4195714;28;20155;-66
2022/09/18 05:57:02;;;;;;;3.10;1.80;;;;;;;11.06;64.91;94239.19;4203798;28;20540;-64
2022/09/18 05:59:03;;;;;;;2.92;1.98;;;;;;;11.04;64.95;94230.69;4202172;28;20123;-65
2022/09/18 06:01:05;;;;;;;2.97;1.40;;;;;;;11.12;65.34;94231.63;4198565;28;20084;-64
2022/09/18 06:03:09;;;;;;;2.88;1.80;;;;;;;10.96;64.49;94228.09;4204570;28;20055;-64
2022/09/18 06:05:12;;;;;;;2.60;1.30;;;;;;;10.96;64.57;94237.78;4202599;28;20098;-66
2022/09/18 06:07:15;;;;;;;2.00;1.50;;;;;;;11.04;64.60;94241.19;4210275;28;20153;-65
2022/09/18 06:09:17;;;;;;;2.73;1.90;;;;;;;11.10;64.83;94241.47;4213830;28;20048;-65
2022/09/18 06:11:19;;;;;;;1.90;1.35;;;;;;;11.04;64.25;94243.78;4212332;28;20130;-66
2022/09/18 06:13:20;;;;;;;2.38;1.52;;;;;;;11.12;64.58;94226.38;4213394;28;20160;-65
2022/09/18 06:15:22;;;;;;;2.33;1.58;;;;;;;11.07;64.05;94248.69;4214065;28;20113;-65
2022/09/18 06:17:24;;;;;;;2.25;1.17;;;;;;;11.00;63.63;94260.84;4211963;28;20080;-66
2022/09/18 06:19:25;;;;;;;2.38;1.35;;;;;;;11.06;63.63;94260.16;4213201;28;20140;-64
2022/09/18 06:21:27;;;;;;;1.60;1.10;;;;;;;10.95;63.62;94257.09;4213828;28;20288;-65
2022/09/18 06:23:29;;;;;;;1.63;1.20;;;;;;;10.81;64.27;94267.34;4212363;28;20174;-66
2022/09/18 06:25:31;;;;;;;2.83;1.40;;;;;;;10.97;64.64;94266.44;4210583;28;20131;-67
2022/09/18 06:27:33;;;;;;;2.70;1.50;;;;;;;11.12;64.73;94273.56;4212518;28;20126;-66
2022/09/18 06:29:34;;;;;;;3.38;1.70;;;;;;;11.10;64.54;94273.75;4212513;28;20066;-64
2022/09/18 06:31:36;;;;;;;3.25;1.92;;;;;;;10.95;65.61;94278.91;4212264;28;20156;-65
2022/09/18 06:33:38;;;;;;;5.35;2.13;;;;;;;11.12;65.16;94284.88;4214201;28;20106;-66
2022/09/18 06:35:41;;;;;;;1.65;1.13;;;;;;;11.22;64.35;94274.16;4206868;28;20446;-67
2022/09/18 06:37:42;;;;;;;3.55;1.30;;;;;;;11.24;64.04;94285.28;4203068;28;20127;-65
2022/09/18 06:39:44;;;;;;;1.83;1.17;;;;;;;11.24;63.92;94293.97;4209422;28;20140;-64
2022/09/18 06:41:46;;;;;;;2.65;1.20;;;;;;;11.32;63.67;94290.50;4213853;28;20040;-66
2022/09/18 06:43:49;;;;;;;2.83;1.02;;;;;;;11.32;63.42;94302.81;4214064;28;20419;-65
2022/09/18 06:45:52;;;;;;;2.92;1.20;;;;;;;11.22;62.69;94293.31;4213529;28;20109;-65
2022/09/18 06:47:54;;;;;;;2.75;1.10;;;;;;;11.29;63.05;94303.94;4199965;28;20059;-66
2022/09/18 06:49:56;;;;;;;3.47;1.33;;;;;;;11.34;62.81;94299.00;4212616;28;20066;-68
2022/09/18 06:51:58;;;;;;;1.77;1.17;;;;;;;11.53;62.12;94299.53;4214031;28;20139;-67
2022/09/18 06:53:59;;;;;;;4.50;1.45;;;;;;;11.41;62.20;94307.00;4214117;28;20082;-65
2022/09/18 06:56:02;;;;;;;2.53;1.13;;;;;;;11.53;61.91;94307.41;4212397;28;20467;-65
2022/09/18 06:58:03;;;;;;;1.30;0.98;;;;;;;11.52;62.54;94306.59;4213739;28;20051;-67
2022/09/18 07:00:08;;;;;;;3.30;1.40;;;;;;;11.64;62.38;94320.13;4213628;28;20601;-66
2022/09/18 07:02:12;;;;;;;1.55;1.08;;;;;;;11.58;61.26;94305.91;4213308;28;20135;-62
2022/09/18 07:04:19;;;;;;;1.55;0.82;;;;;;;11.61;61.46;94309.97;4210083;28;20048;-66
2022/09/18 07:06:21;;;;;;;2.47;1.30;;;;;;;11.62;60.71;94319.50;4201651;28;20067;-67
2022/09/18 07:08:23;;;;;;;3.33;0.98;;;;;;;11.62;60.70;94325.56;4204929;28;20046;-66
2022/09/18 07:10:25;;;;;;;2.65;1.38;;;;;;;11.52;60.06;94319.72;4195102;28;20090;-66
2022/09/18 07:12:28;;;;;;;1.75;1.00;;;;;;;11.61;59.93;94325.72;4196583;28;20079;-66
2022/09/18 07:14:29;;;;;;;4.28;2.17;;;;;;;11.45;60.49;94330.06;4196937;28;20088;-66
2022/09/18 07:16:31;;;;;;;3.92;1.98;;;;;;;11.59;61.04;94327.69;4206083;28;20052;-66
2022/09/18 07:18:33;;;;;;;1.80;1.33;;;;;;;11.76;59.50;94337.09;4200253;28;20056;-60
2022/09/18 07:20:35;;;;;;;2.00;1.35;;;;;;;11.80;59.07;94324.44;4196613;28;20041;-58
2022/09/18 07:22:37;;;;;;;2.47;1.33;;;;;;;11.78;59.77;94327.22;4196710;28;20094;-59
2022/09/18 07:24:39;;;;;;;2.67;1.48;;;;;;;11.80;59.52;94324.44;4196361;28;20084;-60
2022/09/18 07:26:40;;;;;;;2.55;1.25;;;;;;;11.78;59.92;94327.22;4196372;28;20052;-59
2022/09/18 07:28:42;;;;;;;2.47;1.42;;;;;;;11.97;59.18;94327.78;4212338;28;20098;-58
2022/09/18 07:30:44;;;;;;;1.77;1.15;;;;;;;11.89;59.16;94331.28;4206746;28;20128;-60
2022/09/18 07:32:46;;;;;;;2.35;1.20;;;;;;;11.92;58.83;94333.56;4204804;28;20048;-58
2022/09/18 07:34:48;;;;;;;1.98;1.20;;;;;;;11.95;59.02;94337.66;4212477;28;20510;-59
2022/09/18 07:36:50;;;;;;;3.65;1.40;;;;;;;12.02;58.37;94338.56;4206299;28;20057;-59
2022/09/18 07:38:52;;;;;;;2.65;1.30;;;;;;;12.05;58.19;94343.47;4203580;28;20075;-61
2022/09/18 07:40:53;;;;;;;2.25;1.48;;;;;;;12.14;58.04;94352.09;4205548;28;20086;-59
2022/09/18 07:43:06;;;;;;;3.30;1.50;;;;;;;12.28;57.82;94341.63;4210720;28;20085;-60
2022/09/18 07:45:08;;;;;;;4.90;1.35;;;;;;;12.26;57.45;94341.00;4201861;28;20102;-59
2022/09/18 07:47:10;;;;;;;1.98;1.27;;;;;;;12.18;57.54;94346.31;4213074;28;20715;-59
2022/09/18 07:49:12;;;;;;;1.92;1.23;;;;;;;12.14;57.48;94341.59;4210030;28;20079;-59
2022/09/18 07:51:14;;;;;;;2.92;1.60;;;;;;;11.62;59.74;94356.22;4208878;28;20051;-58
2022/09/18 07:53:17;;;;;;;4.05;1.55;;;;;;;11.81;59.35;94344.47;4208792;28;20475;-58
2022/09/18 07:55:20;;;;;;;3.08;1.90;;;;;;;11.91;59.36;94354.72;4194788;28;20040;-58
2022/09/18 07:57:21;;;;;;;2.95;1.83;;;;;;;12.05;58.32;94344.28;4199871;28;20151;-59
2022/09/18 07:59:23;;;;;;;6.25;1.80;;;;;;;12.14;58.72;94350.28;4196544;28;20051;-59
2022/09/18 08:01:25;;;;;;;4.50;2.67;;;;;;;12.02;58.19;94359.56;4200770;28;20101;-60
2022/09/18 08:03:26;;;;;;;3.85;1.98;;;;;;;11.94;58.54;94364.88;4212532;28;20048;-58
2022/09/18 08:05:28;;;;;;;2.45;1.80;;;;;;;12.03;57.80;94361.22;4211369;28;20076;-61
2022/09/18 08:07:30;;;;;;;2.85;1.33;;;;;;;12.07;57.13;94365.13;4210951;28;20139;-58
2022/09/18 08:09:31;;;;;;;3.13;1.50;;;;;;;12.21;56.45;94369.59;4195285;28;20560;-60
2022/09/18 08:11:33;;;;;;;4.53;1.70;;;;;;;12.08;57.21;94356.25;4194071;28;20053;-60
2022/09/18 08:13:35;;;;;;;2.70;1.50;;;;;;;12.18;57.01;94359.44;4206390;28;20063;-61
2022/09/18 08:15:39;;;;;;;2.60;1.58;;;;;;;12.28;57.16;94375.78;4211609;28;20052;-61
2022/09/18 08:17:44;;;;;;;2.17;1.20;;;;;;;12.55;56.74;94365.69;4211524;28;20512;-60
2022/09/18 08:19:46;;;;;;;2.25;1.60;;;;;;;12.60;56.09;94359.88;4211225;28;20052;-59
2022/09/18 08:21:48;;;;;;;2.20;1.08;;;;;;;12.60;55.52;94352.81;4211600;28;20163;-59
2022/09/18 08:23:49;;;;;;;3.70;1.50;;;;;;;12.60;55.82;94344.91;4211759;28;20581;-59
2022/09/18 08:25:51;;;;;;;2.22;1.50;;;;;;;12.65;55.29;94350.47;4210045;28;20127;-59
2022/09/18 08:27:53;;;;;;;3.63;1.60;;;;;;;12.74;55.12;94350.41;4210852;28;20048;-61
2022/09/18 08:29:56;;;;;;;3.60;1.20;;;;;;;12.67;55.79;94348.47;4210005;28;20139;-59
2022/09/18 08:31:58;;;;;;;2.13;1.25;;;;;;;12.60;55.15;94334.41;4198257;28;20155;-61
2022/09/18 08:34:00;;;;;;;2.80;1.50;;;;;;;12.76;55.64;94341.31;4210334;28;20412;-58
2022/09/18 08:36:02;;;;;;;2.03;1.33;;;;;;;12.98;54.59;94365.88;4208881;28;20127;-58
2022/09/18 08:38:04;;;;;;;1.80;1.23;;;;;;;12.92;54.35;94350.81;4210794;28;20530;-60
2022/09/18 08:40:07;;;;;;;1.75;1.10;;;;;;;12.84;54.90;94356.16;4209824;28;20052;-59
2022/09/18 08:42:12;;;;;;;;;;;;;;;12.96;55.27;94343.41;4212837;28;20086;-60
2022/09/18 08:44:23;;;;;;;3.88;1.90;;;;;;;13.26;54.71;94357.34;4210422;28;20352;-60
2022/09/18 08:46:52;;;;;;;2.30;1.23;;;;;;;13.47;55.14;94365.31;4209319;28;20105;-68
2022/09/18 08:49:10;;;;;;;1.60;0.93;;;;;;;13.62;53.88;94360.00;4210557;28;20400;-66
2022/09/18 08:51:29;;;;;;;1.55;1.00;;;;;;;13.68;52.73;94351.38;4205719;28;20496;-65
2022/09/18 08:53:37;;;;;;;1.38;0.90;;;;;;;13.77;53.31;94343.38;4205357;28;20048;-66
2022/09/18 08:55:41;;;;;;;1.40;0.80;;;;;;;13.85;52.21;94346.69;4193631;28;20053;-64
2022/09/18 08:57:48;;;;;;;1.45;0.90;;;;;;;14.05;52.03;94359.22;4195473;28;20053;-67
2022/09/18 09:00:02;;;;;;;2.88;1.45;;;;;;;14.06;53.65;94345.84;4210583;28;20039;-65
2022/09/18 09:02:13;;;;;;;2.30;1.40;;;;;;;13.17;56.30;94387.38;4211715;28;20731;-65
2022/09/18 09:04:22;;;;;;;3.15;2.05;;;;;;;12.57;57.49;94391.78;4207707;28;20074;-64
2022/09/18 09:06:46;;;;;;;3.42;2.10;;;;;;;12.37;57.55;94391.44;4210165;28;20121;-69
2022/09/18 09:08:48;;;;;;;;;;;;;;;12.48;56.66;94404.19;4196738;28;20050;-65
2022/09/18 09:11:01;;;;;;;2.60;1.38;;;;;;;12.21;56.92;94395.03;4204375;28;19920;-66
2022/09/18 09:13:38;;;;;;;4.70;1.40;;;;;;;12.31;56.22;94395.63;4195237;28;20517;-67
2022/09/18 09:15:39;;;;;;;3.28;1.20;;;;;;;12.45;55.47;94397.47;4208997;28;20059;-65
2022/09/18 09:17:56;;;;;;;5.40;1.50;;;;;;;12.57;55.58;94403.09;4210992;28;20079;-65
2022/09/18 09:20:21;;;;;;;3.17;1.30;;;;;;;12.55;55.58;94412.97;4205842;28;20056;-65
2022/09/18 09:22:58;;;;;;;3.92;1.20;;;;;;;12.47;55.85;94411.22;4194226;28;20144;-67
2022/09/18 09:25:23;;;;;;;2.22;1.30;;;;;;;12.63;55.38;94414.72;4180703;28;20497;-65
2022/09/18 09:27:51;;;;;;;3.92;1.40;;;;;;;12.85;55.36;94431.44;4199831;28;20083;-65
2022/09/18 09:30:10;;;;;;;1.38;0.90;;;;;;;12.88;54.45;94426.63;4210032;28;20052;-68
2022/09/18 09:32:24;;;;;;;1.77;0.93;;;;;;;12.91;54.47;94417.56;4203077;28;20092;-68
2022/09/18 09:34:42;;;;;;;2.00;1.10;;;;;;;12.93;54.18;94425.25;4209552;28;20052;-68
2022/09/18 09:36:47;;;;;;;4.15;1.10;;;;;;;13.04;53.23;94417.75;4209639;28;20680;-66
2022/09/18 09:38:57;;;;;;;2.17;1.20;;;;;;;12.97;53.19;94443.16;4202513;28;20048;-67
2022/09/18 09:41:30;;;;;;;1.95;1.40;;;;;;;13.08;52.64;94437.44;4198306;28;20132;-66
2022/09/18 09:43:59;;;;;;;1.70;1.00;;;;;;;13.24;52.41;94440.88;4195881;28;20634;-67
2022/09/18 09:46:21;;;;;;;3.10;1.33;;;;;;;13.22;52.74;94454.19;4208462;28;20055;-65
2022/09/18 09:48:37;;;;;;;3.30;1.40;;;;;;;13.28;52.53;94460.56;4194755;28;20057;-67
2022/09/18 09:51:00;;;;;;;2.22;1.65;;;;;;;13.33;52.02;94450.34;4202291;28;20083;-68
2022/09/18 09:53:06;;;;;;;7.18;1.73;;;;;;;13.44;52.83;94444.63;4202925;28;20059;-67
2022/09/18 09:55:13;;;;;;;4.30;2.17;;;;;;;13.44;52.39;94444.63;4191953;28;20127;-66